createdAt,value
2018-06-08T00:02:19.251Z,23.53
2018-06-08T00:04:48.527Z,24.87
2018-06-08T00:07:17.840Z,23.07
2018-06-08T00:09:47.295Z,21.40
2018-06-08T00:12:16.580Z,23.40
2018-06-08T00:14:45.853Z,22.50
2018-06-08T00:17:14.795Z,22.80
2018-06-08T00:19:44.054Z,21.13
2018-06-08T00:22:13.479Z,21.27
2018-06-08T00:24:42.764Z,24.20
2018-06-08T00:27:12.021Z,23.60
2018-06-08T00:29:41.319Z,24.27
2018-06-08T00:32:10.618Z,23.53
2018-06-08T00:34:39.890Z,23.73
2018-06-08T00:37:09.141Z,22.93
2018-06-08T00:39:38.444Z,24.67
2018-06-08T00:42:07.754Z,22.53
2018-06-08T00:44:37.007Z,22.80
2018-06-08T00:47:06.338Z,24.93
2018-06-08T00:49:35.262Z,23.77
2018-06-08T00:52:04.456Z,25.40
2018-06-08T00:54:33.668Z,23.10
2018-06-08T00:57:05.499Z,22.70
2018-06-08T00:59:34.589Z,22.07
2018-06-08T01:02:03.757Z,23.73
2018-06-08T01:04:32.995Z,20.60
2018-06-08T01:07:02.247Z,21.87
2018-06-08T01:09:31.507Z,23.53
2018-06-08T01:12:00.930Z,23.50
2018-06-08T01:14:33.921Z,23.53
2018-06-08T01:17:03.332Z,24.20
2018-06-08T01:19:33.421Z,22.77
2018-06-08T01:22:03.046Z,21.93
2018-06-08T01:24:32.874Z,20.90
2018-06-08T01:27:02.129Z,22.80
2018-06-08T01:29:31.452Z,24.23
2018-06-08T01:32:00.706Z,22.47
2018-06-08T01:34:30.024Z,21.43
2018-06-08T01:36:59.280Z,19.40
2018-06-08T01:39:28.505Z,19.90
2018-06-08T01:41:57.781Z,19.60
2018-06-08T01:44:26.749Z,20.00
2018-06-08T01:46:55.867Z,20.77
2018-06-08T01:49:25.146Z,21.53
2018-06-08T01:51:54.390Z,20.70
2018-06-08T01:54:23.426Z,19.90
2018-06-08T01:56:52.559Z,22.30
2018-06-08T01:59:21.841Z,22.47
2018-06-08T02:01:51.197Z,20.17
2018-06-08T02:04:20.500Z,21.17
2018-06-08T02:06:49.781Z,20.17
2018-06-08T02:09:19.140Z,21.50
2018-06-08T02:11:50.273Z,21.03
2018-06-08T02:14:19.547Z,21.50
2018-06-08T02:16:48.933Z,20.30
2018-06-08T02:19:18.654Z,20.93
2018-06-08T02:21:47.917Z,20.43
2018-06-08T02:24:17.234Z,19.53
2018-06-08T02:26:46.522Z,20.10
2018-06-08T02:29:15.866Z,23.50
2018-06-08T02:31:45.133Z,21.37
2018-06-08T02:34:14.415Z,25.57
2018-06-08T02:36:43.676Z,24.50
2018-06-08T02:39:12.940Z,24.10
2018-06-08T02:41:42.233Z,23.30
2018-06-08T02:44:11.522Z,26.30
2018-06-08T02:46:40.763Z,25.13
2018-06-08T02:49:09.998Z,26.43
2018-06-08T02:51:39.291Z,24.73
2018-06-08T02:54:08.521Z,24.83
2018-06-08T02:56:37.847Z,25.53
2018-06-08T02:59:07.108Z,25.40
2018-06-08T03:01:36.428Z,25.87
2018-06-08T03:04:06.049Z,25.90
2018-06-08T03:06:35.314Z,24.80
2018-06-08T03:09:05.757Z,27.13
2018-06-08T03:11:34.888Z,26.67
2018-06-08T03:14:04.235Z,24.93
2018-06-08T03:16:33.471Z,25.43
2018-06-08T03:19:02.720Z,26.10
2018-06-08T03:21:32.037Z,25.97
2018-06-08T03:24:01.374Z,27.03
2018-06-08T03:26:30.722Z,26.37
2018-06-08T03:28:59.992Z,25.77
2018-06-08T03:31:29.277Z,24.93
2018-06-08T03:33:58.558Z,24.80
2018-06-08T03:36:27.809Z,24.47
2018-06-08T03:38:57.111Z,21.93
2018-06-08T03:41:26.415Z,22.20
2018-06-08T03:43:55.810Z,22.33
2018-06-08T03:46:25.056Z,21.70
2018-06-08T03:48:54.497Z,23.10
2018-06-08T03:51:23.817Z,23.53
2018-06-08T03:53:53.086Z,19.70
2018-06-08T03:56:22.364Z,19.43
2018-06-08T03:58:51.755Z,20.63
2018-06-08T04:01:21.055Z,22.83
2018-06-08T04:03:50.315Z,23.30
2018-06-08T04:06:19.573Z,20.27
2018-06-08T04:08:48.874Z,22.00
2018-06-08T04:11:19.160Z,22.90
2018-06-08T04:13:48.435Z,23.20
2018-06-08T04:16:17.689Z,23.27
2018-06-08T04:18:46.956Z,22.17
2018-06-08T04:21:16.268Z,21.77
2018-06-08T04:23:45.532Z,22.10
2018-06-08T04:26:14.883Z,20.70
2018-06-08T04:28:44.144Z,21.43
2018-06-08T04:31:13.437Z,22.63
2018-06-08T04:33:42.732Z,22.10
2018-06-08T04:36:11.974Z,21.83
2018-06-08T04:38:40.894Z,24.30
2018-06-08T04:41:10.047Z,23.70
2018-06-08T04:43:39.434Z,22.40
2018-06-08T04:46:08.720Z,22.97
2018-06-08T04:48:38.161Z,24.00
2018-06-08T04:51:07.657Z,23.73
2018-06-08T04:53:37.046Z,23.37
2018-06-08T04:56:06.410Z,24.97
2018-06-08T04:58:35.776Z,24.80
2018-06-08T05:01:05.099Z,25.57
2018-06-08T05:03:34.465Z,23.73
2018-06-08T05:06:03.492Z,23.43
2018-06-08T05:08:33.049Z,24.73
2018-06-08T05:11:02.546Z,22.20
2018-06-08T05:13:32.186Z,23.40
2018-06-08T05:16:01.746Z,22.07
2018-06-08T05:18:32.279Z,19.77
2018-06-08T05:21:02.122Z,19.50
2018-06-08T05:23:31.648Z,21.23
2018-06-08T05:26:00.698Z,18.83
2018-06-08T05:28:29.905Z,20.43
2018-06-08T05:30:59.174Z,20.87
2018-06-08T05:33:28.569Z,18.87
2018-06-08T05:35:57.907Z,19.43
2018-06-08T05:38:27.178Z,20.13
2018-06-08T05:40:56.437Z,19.33
2018-06-08T05:43:25.797Z,19.20
2018-06-08T05:45:55.068Z,20.20
2018-06-08T05:48:24.465Z,20.60
2018-06-08T05:50:53.897Z,22.20
2018-06-08T05:53:23.268Z,20.77
2018-06-08T05:55:52.558Z,22.17
2018-06-08T05:58:21.840Z,21.47
2018-06-08T06:00:51.363Z,22.13
2018-06-08T06:03:20.346Z,21.50
2018-06-08T06:05:49.584Z,23.77
2018-06-08T06:08:18.972Z,19.67
2018-06-08T06:10:48.411Z,19.03
2018-06-08T06:13:17.823Z,19.27
2018-06-08T06:15:48.030Z,20.27
2018-06-08T06:18:17.400Z,18.70
2018-06-08T06:20:46.860Z,19.80
2018-06-08T06:23:16.187Z,20.47
2018-06-08T06:25:45.629Z,20.60
2018-06-08T06:28:15.045Z,19.17
2018-06-08T06:30:44.374Z,20.47
2018-06-08T06:33:13.681Z,17.73
2018-06-08T06:35:42.981Z,22.23
2018-06-08T06:38:12.419Z,22.30
2018-06-08T06:40:41.780Z,18.50
2018-06-08T06:43:11.161Z,18.83
2018-06-08T06:45:40.553Z,21.00
2018-06-08T06:48:09.876Z,19.67
2018-06-08T06:50:40.388Z,21.07
2018-06-08T06:53:09.647Z,21.07
2018-06-08T06:55:38.883Z,21.40
2018-06-08T06:58:08.255Z,21.30
2018-06-08T07:00:37.565Z,21.70
2018-06-08T07:03:06.958Z,23.50
2018-06-08T07:05:36.254Z,19.57
2018-06-08T07:08:05.748Z,22.87
2018-06-08T07:10:35.036Z,18.83
2018-06-08T07:13:04.408Z,21.60
2018-06-08T07:15:33.792Z,21.40
2018-06-08T07:18:03.176Z,20.33
2018-06-08T07:20:32.743Z,21.57
2018-06-08T07:23:02.234Z,18.77
2018-06-08T07:25:31.997Z,22.10
2018-06-08T07:28:01.279Z,21.67
2018-06-08T07:30:30.701Z,18.90
2018-06-08T07:33:00.011Z,18.50
2018-06-08T07:35:29.371Z,19.90
2018-06-08T07:37:58.771Z,20.87
2018-06-08T07:40:28.209Z,21.53
2018-06-08T07:42:57.709Z,18.50
2018-06-08T07:45:27.109Z,18.80
2018-06-08T07:47:56.424Z,17.97
2018-06-08T07:50:25.836Z,18.50
2018-06-08T07:52:55.168Z,17.70
2018-06-08T07:55:24.478Z,17.73
2018-06-08T07:57:53.845Z,15.63
2018-06-08T08:00:23.206Z,17.20
2018-06-08T08:02:52.669Z,17.67
2018-06-08T08:05:22.116Z,17.80
2018-06-08T08:07:51.441Z,18.90
2018-06-08T08:10:20.828Z,15.60
2018-06-08T08:12:50.131Z,17.20
2018-06-08T08:15:19.166Z,18.50
2018-06-08T08:17:48.132Z,17.40
2018-06-08T08:20:17.265Z,17.80
2018-06-08T08:22:47.153Z,18.37
2018-06-08T08:25:16.651Z,19.33
2018-06-08T08:27:45.949Z,16.73
2018-06-08T08:30:15.247Z,18.67
2018-06-08T08:32:44.552Z,16.90
2018-06-08T08:35:13.999Z,17.60
2018-06-08T08:37:43.299Z,16.17
2018-06-08T08:40:12.751Z,16.17
2018-06-08T08:42:42.035Z,15.70
2018-06-08T08:45:11.627Z,14.80
2018-06-08T08:47:40.986Z,17.27
2018-06-08T08:50:11.164Z,18.20
2018-06-08T08:52:40.471Z,15.47
2018-06-08T08:55:09.981Z,15.90
2018-06-08T08:57:39.349Z,13.80
2018-06-08T09:00:08.882Z,14.93
2018-06-08T09:02:38.558Z,15.70
2018-06-08T09:05:08.044Z,16.43
2018-06-08T09:07:37.520Z,16.50
2018-06-08T09:10:06.912Z,14.30
2018-06-08T09:12:36.206Z,16.70
2018-06-08T09:15:06.022Z,17.03
2018-06-08T09:17:35.075Z,16.20
2018-06-08T09:20:04.214Z,14.60
2018-06-08T09:22:33.337Z,15.17
2018-06-08T09:25:03.038Z,14.57
2018-06-08T09:27:32.220Z,14.63
2018-06-08T09:30:02.443Z,13.70
2018-06-08T09:32:31.884Z,14.57
2018-06-08T09:35:00.934Z,14.13
2018-06-08T09:37:30.100Z,14.50
2018-06-08T09:39:59.459Z,15.23
2018-06-08T09:42:28.741Z,17.17
2018-06-08T09:44:58.103Z,15.20
2018-06-08T09:47:27.423Z,13.87
2018-06-08T09:49:56.718Z,15.73
2018-06-08T09:52:26.025Z,13.57
2018-06-08T09:54:55.334Z,14.53
2018-06-08T09:57:24.598Z,15.00
2018-06-08T09:59:55.825Z,15.00
2018-06-08T10:02:25.422Z,14.30
2018-06-08T10:04:54.471Z,14.27
2018-06-08T10:07:23.677Z,14.10
2018-06-08T10:09:53.039Z,12.27
2018-06-08T10:12:22.634Z,13.10
2018-06-08T10:14:51.982Z,12.97
2018-06-08T10:17:21.301Z,10.70
2018-06-08T10:19:50.646Z,12.17
2018-06-08T10:22:20.015Z,10.60
2018-06-08T10:24:48.958Z,10.63
2018-06-08T10:27:18.137Z,9.50
2018-06-08T10:29:48.469Z,9.40
2018-06-08T10:32:18.513Z,8.07
2018-06-08T10:34:48.707Z,10.00
2018-06-08T10:37:18.301Z,11.80
2018-06-08T10:39:47.836Z,9.57
2018-06-08T10:42:17.266Z,9.83
2018-06-08T10:44:47.687Z,11.17
2018-06-08T10:47:16.968Z,9.23
2018-06-08T10:49:46.552Z,12.63
2018-06-08T10:52:15.817Z,10.43
2018-06-08T10:54:45.192Z,13.27
2018-06-08T10:57:14.709Z,12.37
2018-06-08T10:59:44.494Z,12.33
2018-06-08T11:02:13.833Z,13.20
2018-06-08T11:04:42.813Z,14.63
2018-06-08T11:07:11.990Z,13.83
2018-06-08T11:09:44.744Z,13.37
2018-06-08T11:12:13.938Z,12.87
2018-06-08T11:14:43.147Z,13.63
2018-06-08T11:17:12.539Z,13.30
2018-06-08T11:19:41.839Z,12.07
2018-06-08T11:22:11.145Z,13.20
2018-06-08T11:24:40.431Z,12.03
2018-06-08T11:27:09.739Z,13.90
2018-06-08T11:29:38.989Z,12.90
2018-06-08T11:32:07.948Z,12.50
2018-06-08T11:34:37.086Z,12.97
2018-06-08T11:37:06.396Z,12.57
2018-06-08T11:39:35.660Z,12.20
2018-06-08T11:42:05.025Z,11.50
2018-06-08T11:44:34.366Z,11.50
2018-06-08T11:47:03.764Z,11.13
2018-06-08T11:49:33.129Z,12.83
2018-06-08T11:52:02.427Z,11.50
2018-06-08T11:54:31.716Z,13.63
2018-06-08T11:57:01.090Z,11.37
2018-06-08T11:59:30.459Z,12.10
2018-06-08T12:01:59.818Z,11.60
2018-06-08T12:04:29.234Z,12.50
2018-06-08T12:06:59.198Z,12.73
2018-06-08T12:09:28.519Z,12.07
2018-06-08T12:11:57.919Z,12.50
2018-06-08T12:14:27.265Z,13.17
2018-06-08T12:16:56.668Z,11.43
2018-06-08T12:19:25.996Z,12.07
2018-06-08T12:21:55.295Z,12.63
2018-06-08T12:24:24.611Z,12.70
2018-06-08T12:26:53.989Z,12.07
2018-06-08T12:29:23.472Z,12.67
2018-06-08T12:31:52.947Z,13.83
2018-06-08T12:34:22.263Z,11.47
2018-06-08T12:36:52.163Z,14.30
2018-06-08T12:39:21.451Z,12.40
2018-06-08T12:41:50.807Z,12.50
2018-06-08T12:44:20.200Z,11.50
2018-06-08T12:46:49.549Z,11.80
2018-06-08T12:49:18.530Z,12.20
2018-06-08T12:51:48.691Z,11.57
2018-06-08T12:54:17.967Z,11.30
2018-06-08T12:56:47.253Z,11.87
2018-06-08T12:59:16.213Z,11.67
2018-06-08T13:01:45.420Z,11.97
2018-06-08T13:04:14.751Z,12.63
2018-06-08T13:06:43.799Z,11.23
2018-06-08T13:09:13.864Z,10.70
2018-06-08T13:11:43.226Z,10.97
2018-06-08T13:14:12.537Z,10.73
2018-06-08T13:16:41.998Z,11.47
2018-06-08T13:19:11.344Z,12.80
2018-06-08T13:21:40.688Z,13.40
2018-06-08T13:24:10.036Z,11.30
2018-06-08T13:26:39.321Z,11.50
2018-06-08T13:29:08.775Z,11.77
2018-06-08T13:31:38.110Z,11.27
2018-06-08T13:34:07.462Z,11.40
2018-06-08T13:36:36.843Z,10.57
2018-06-08T13:39:06.784Z,11.20
2018-06-08T13:41:35.984Z,12.53
2018-06-08T13:44:06.071Z,10.40
2018-06-08T13:46:45.056Z,12.50
2018-06-08T13:49:14.385Z,10.43
2018-06-08T13:51:43.737Z,11.97
2018-06-08T13:54:12.786Z,11.37
2018-06-08T13:56:41.977Z,11.73
2018-06-08T13:59:12.189Z,10.37
2018-06-08T14:01:41.702Z,12.33
2018-06-08T14:04:11.186Z,11.63
2018-06-08T14:06:44.143Z,12.17
2018-06-08T14:09:14.131Z,11.40
2018-06-08T14:11:43.459Z,11.17
2018-06-08T14:14:12.492Z,11.03
2018-06-08T14:16:41.881Z,11.23
2018-06-08T14:19:11.339Z,10.67
2018-06-08T14:21:40.758Z,10.57
2018-06-08T14:24:10.058Z,12.50
2018-06-08T14:26:39.450Z,10.60
2018-06-08T14:29:08.733Z,11.50
2018-06-08T14:31:38.042Z,9.30
2018-06-08T14:34:07.312Z,8.90
2018-06-08T14:36:36.665Z,8.03
2018-06-08T14:39:08.264Z,9.40
2018-06-08T14:41:37.768Z,8.17
2018-06-08T14:44:07.208Z,9.27
2018-06-08T14:46:36.547Z,8.00
2018-06-08T14:49:05.979Z,8.43
2018-06-08T14:51:35.134Z,6.70
2018-06-08T14:54:04.489Z,7.00
2018-06-08T14:56:33.823Z,7.70
2018-06-08T14:59:03.239Z,6.60
2018-06-08T15:01:32.568Z,5.57
2018-06-08T15:04:01.899Z,6.40
2018-06-08T15:06:31.186Z,6.60
2018-06-08T15:09:00.539Z,6.70
2018-06-08T15:11:29.891Z,12.33
2018-06-08T15:13:59.024Z,8.83
2018-06-08T15:16:28.417Z,8.80
2018-06-08T15:18:57.704Z,7.33
2018-06-08T15:21:27.062Z,7.50
2018-06-08T15:23:56.549Z,8.73
2018-06-08T15:26:25.578Z,7.13
2018-06-08T15:28:54.806Z,7.90
2018-06-08T15:31:25.051Z,7.83
2018-06-08T15:33:54.389Z,7.60
2018-06-08T15:36:23.706Z,34.10
2018-06-08T15:38:53.065Z,8.33
2018-06-08T15:41:22.414Z,8.60
2018-06-08T15:43:51.340Z,8.13
2018-06-08T15:46:20.487Z,8.13
2018-06-08T15:48:49.448Z,7.20
2018-06-08T15:51:18.722Z,7.83
2018-06-08T15:53:48.061Z,6.83
2018-06-08T15:56:17.353Z,7.60
2018-06-08T15:58:46.652Z,8.27
2018-06-08T16:01:15.990Z,7.93
2018-06-08T16:03:45.323Z,8.27
2018-06-08T16:06:14.667Z,8.30
2018-06-08T16:08:43.976Z,8.57
2018-06-08T16:11:13.417Z,8.93
2018-06-08T16:13:42.679Z,9.57
2018-06-08T16:16:12.102Z,7.70
2018-06-08T16:18:41.481Z,7.93
2018-06-08T16:21:10.754Z,8.83
2018-06-08T16:23:39.998Z,8.43
2018-06-08T16:26:09.300Z,9.10
2018-06-08T16:28:38.589Z,9.07
2018-06-08T16:31:07.983Z,9.00
2018-06-08T16:33:37.257Z,8.80
2018-06-08T16:36:06.663Z,9.00
2018-06-08T16:38:35.971Z,9.00
2018-06-08T16:41:05.276Z,9.47
2018-06-08T16:43:34.571Z,11.17
2018-06-08T16:46:03.877Z,11.33
2018-06-08T16:48:33.189Z,11.20
2018-06-08T16:51:02.967Z,16.70
2018-06-08T16:53:31.937Z,15.70
2018-06-08T16:56:01.220Z,17.30
2018-06-08T16:58:30.527Z,16.37
2018-06-08T17:01:00.388Z,15.40
2018-06-08T17:03:29.802Z,16.27
2018-06-08T17:05:59.107Z,16.60
2018-06-08T17:08:28.401Z,14.43
2018-06-08T17:10:57.729Z,15.63
2018-06-08T17:13:26.982Z,13.23
2018-06-08T17:15:56.525Z,16.13
2018-06-08T17:18:25.786Z,17.03
2018-06-08T17:20:55.356Z,17.97
2018-06-08T17:23:25.611Z,15.93
2018-06-08T17:25:54.929Z,15.50
2018-06-08T17:28:24.236Z,18.33
2018-06-08T17:30:53.539Z,16.33
2018-06-08T17:33:22.901Z,16.03
2018-06-08T17:35:52.169Z,18.30
2018-06-08T17:38:21.473Z,18.50
2018-06-08T17:40:50.467Z,20.27
2018-06-08T17:43:19.694Z,19.10
2018-06-08T17:45:49.005Z,18.00
2018-06-08T17:48:18.329Z,18.00
2018-06-08T17:50:47.615Z,20.17
2018-06-08T17:53:16.926Z,21.67
2018-06-08T17:55:46.227Z,23.73
2018-06-08T17:58:15.501Z,21.70
2018-06-08T18:00:44.480Z,24.33
2018-06-08T18:03:13.621Z,22.83
2018-06-08T18:05:42.958Z,23.10
2018-06-08T18:08:12.247Z,24.60
2018-06-08T18:10:41.512Z,25.53
2018-06-08T18:13:10.816Z,25.20
2018-06-08T18:15:40.117Z,23.27
2018-06-08T18:18:09.396Z,27.37
2018-06-08T18:20:38.766Z,29.03
2018-06-08T18:23:08.082Z,28.93
2018-06-08T18:25:37.346Z,32.57
2018-06-08T18:28:06.668Z,31.13
2018-06-08T18:30:35.925Z,31.73
2018-06-08T18:33:05.217Z,29.97
2018-06-08T18:35:34.582Z,31.63
2018-06-08T18:38:03.933Z,31.80
2018-06-08T18:40:33.202Z,30.37
2018-06-08T18:43:02.643Z,28.20
2018-06-08T18:45:31.959Z,28.03
2018-06-08T18:48:01.233Z,26.50
2018-06-08T18:50:30.546Z,30.17
2018-06-08T18:52:59.844Z,27.37
2018-06-08T18:55:29.112Z,26.70
2018-06-08T18:57:58.389Z,27.97
2018-06-08T19:00:27.725Z,28.03
2018-06-08T19:02:57.004Z,27.20
2018-06-08T19:05:27.292Z,26.27
2018-06-08T19:07:56.604Z,28.20
2018-06-08T19:10:25.849Z,29.23
2018-06-08T19:12:55.113Z,23.30
2018-06-08T19:15:24.398Z,28.00
2018-06-08T19:17:53.695Z,26.17
2018-06-08T19:20:22.973Z,24.90
2018-06-08T19:22:52.209Z,27.73
2018-06-08T19:25:21.500Z,25.90
2018-06-08T19:27:50.855Z,36.73
2018-06-08T19:30:20.133Z,24.90
2018-06-08T19:32:49.486Z,29.40
2018-06-08T19:35:18.836Z,23.47
2018-06-08T19:37:48.120Z,25.33
2018-06-08T19:40:17.442Z,29.60
2018-06-08T19:42:46.820Z,24.30
2018-06-08T19:45:15.740Z,25.37
2018-06-08T19:47:44.853Z,21.70
2018-06-08T19:50:14.122Z,26.87
2018-06-08T19:52:43.416Z,28.83
2018-06-08T19:55:12.735Z,24.83
2018-06-08T19:57:42.049Z,25.90
2018-06-08T20:00:11.344Z,24.60
2018-06-08T20:02:40.593Z,25.90
2018-06-08T20:05:09.865Z,20.80
2018-06-08T20:07:39.119Z,23.60
2018-06-08T20:10:08.410Z,25.33
2018-06-08T20:12:37.754Z,21.50
2018-06-08T20:15:07.032Z,23.20
2018-06-08T20:17:36.276Z,23.70
2018-06-08T20:20:06.638Z,24.00
2018-06-08T20:22:35.927Z,24.03
2018-06-08T20:25:05.335Z,21.70
2018-06-08T20:27:34.580Z,24.67
2018-06-08T20:30:03.908Z,24.33
2018-06-08T20:32:33.188Z,22.77
2018-06-08T20:35:02.498Z,21.27
2018-06-08T20:37:31.823Z,23.10
2018-06-08T20:40:01.183Z,21.77
2018-06-08T20:42:30.466Z,22.70
2018-06-08T20:44:59.801Z,23.27
2018-06-08T20:47:29.055Z,24.30
2018-06-08T20:49:58.304Z,24.27
2018-06-08T20:52:27.551Z,24.13
2018-06-08T20:54:56.872Z,25.63
2018-06-08T20:57:29.132Z,24.30
2018-06-08T20:59:58.535Z,22.47
2018-06-08T21:02:27.860Z,24.67
2018-06-08T21:04:57.234Z,23.70
2018-06-08T21:07:26.462Z,23.20
2018-06-08T21:09:55.751Z,28.20
2018-06-08T21:12:25.017Z,25.70
2018-06-08T21:14:54.286Z,22.90
2018-06-08T21:17:23.536Z,22.77
2018-06-08T21:19:52.792Z,21.33
2018-06-08T21:22:22.141Z,22.70
2018-06-08T21:24:51.418Z,22.90
2018-06-08T21:27:20.697Z,20.97
2018-06-08T21:29:49.962Z,20.90
2018-06-08T21:32:19.321Z,22.47
2018-06-08T21:34:48.585Z,21.93
2018-06-08T21:37:17.832Z,22.00
2018-06-08T21:39:47.112Z,22.80
2018-06-08T21:42:16.357Z,21.40
2018-06-08T21:44:45.613Z,21.97
2018-06-08T21:47:14.849Z,22.73
2018-06-08T21:49:44.110Z,23.07
2018-06-08T21:52:13.358Z,23.60
2018-06-08T21:54:42.740Z,25.17
2018-06-08T21:57:12.028Z,23.10
2018-06-08T21:59:41.252Z,23.83
2018-06-08T22:02:10.648Z,22.53
2018-06-08T22:04:40.168Z,23.13
2018-06-08T22:07:10.174Z,24.77
2018-06-08T22:09:39.437Z,23.70
2018-06-08T22:12:08.965Z,23.60
2018-06-08T22:14:38.239Z,21.77
2018-06-08T22:17:07.528Z,22.67
2018-06-08T22:19:36.799Z,20.47
2018-06-08T22:22:06.085Z,20.13
2018-06-08T22:24:35.328Z,21.93
2018-06-08T22:27:04.579Z,23.90
2018-06-08T22:29:33.821Z,21.03
2018-06-08T22:32:03.226Z,21.63
2018-06-08T22:34:32.466Z,21.03
2018-06-08T22:37:01.811Z,19.70
2018-06-08T22:39:31.075Z,21.57
2018-06-08T22:42:00.334Z,22.47
2018-06-08T22:44:29.609Z,24.00
2018-06-08T22:46:58.867Z,21.77
2018-06-08T22:49:28.147Z,22.13
2018-06-08T22:51:57.411Z,20.90
2018-06-08T22:54:26.667Z,20.43
2018-06-08T22:56:55.903Z,22.00
2018-06-08T22:59:25.175Z,21.03
2018-06-08T23:01:54.446Z,23.50
2018-06-08T23:04:23.677Z,25.30
2018-06-08T23:06:53.031Z,23.50
2018-06-08T23:09:22.290Z,23.70
2018-06-08T23:11:51.525Z,22.70
2018-06-08T23:14:20.788Z,23.87
2018-06-08T23:16:50.041Z,23.03
2018-06-08T23:19:19.296Z,22.40
2018-06-08T23:21:48.202Z,23.37
2018-06-08T23:24:17.351Z,23.17
2018-06-08T23:26:46.702Z,22.00
2018-06-08T23:29:15.983Z,22.03
2018-06-08T23:31:45.289Z,20.00
2018-06-08T23:34:14.603Z,21.63
2018-06-08T23:36:43.892Z,24.33
2018-06-08T23:39:13.148Z,24.03
2018-06-08T23:41:42.407Z,24.77
2018-06-08T23:44:11.649Z,24.53
2018-06-08T23:46:41.018Z,25.03
2018-06-08T23:49:11.198Z,27.13
2018-06-08T23:51:40.141Z,25.17
2018-06-08T23:54:09.351Z,26.30
2018-06-08T23:56:38.599Z,28.07
2018-06-08T23:59:07.852Z,26.03
